Time;durP1;ratioP1;P1;durP2;ratioP2;P2;SDS_P1;SDS_P2;PMS_P1;PMS_P2;Temp;Humidity;BMP_temperature;BMP_pressure;BME280_temperature;BME280_humidity;BME280_pressure;Samples;Min_cycle;Max_cycle;Signal;HPM_P1;HPM_P2
2023/01/17 00:02:06;;;;;;;39.55;25.48;;;5.20;99.90;;;;;;5010504;28;20065;-74
2023/01/17 00:10:09;;;;;;;145.68;81.80;;;5.20;99.90;;;;;;5014139;28;20441;-73
2023/01/17 00:12:35;;;;;;;286.25;193.68;;;5.20;99.90;;;;;;5007105;28;20034;-73
2023/01/17 00:15:01;;;;;;;38.38;28.27;;;5.20;99.90;;;;;;5014989;28;20081;-73
2023/01/17 00:17:28;;;;;;;156.43;119.05;;;5.20;99.90;;;;;;5000186;28;20125;-73
2023/01/17 01:35:16;;;;;;;10.63;7.88;;;5.20;99.90;;;;;;5017932;28;20068;-73
2023/01/17 01:37:42;;;;;;;9.02;7.68;;;5.20;99.90;;;;;;5003808;28;20018;-73
2023/01/17 01:40:09;;;;;;;10.48;9.38;;;5.10;99.90;;;;;;5012237;28;20022;-74
2023/01/17 01:42:35;;;;;;;10.35;7.72;;;5.10;99.90;;;;;;5005667;28;20026;-74
2023/01/17 01:45:03;;;;;;;9.48;8.07;;;5.10;99.90;;;;;;5013366;28;20095;-74
2023/01/17 01:47:33;;;;;;;8.52;7.25;;;5.10;99.90;;;;;;5023850;28;20097;-74
2023/01/17 01:50:02;;;;;;;9.35;8.38;;;5.20;99.90;;;;;;5012293;28;20094;-73
2023/01/17 01:52:30;;;;;;;8.50;7.70;;;5.20;99.90;;;;;;5009659;28;20053;-74
2023/01/17 01:55:03;;;;;;;8.50;6.85;;;5.10;99.90;;;;;;5013603;28;20073;-74
2023/01/17 01:57:34;;;;;;;8.98;6.53;;;5.20;99.90;;;;;;5010761;28;20030;-74
2023/01/17 02:00:10;;;;;;;6.32;5.70;;;5.20;99.90;;;;;;5014703;28;20494;-74
2023/01/17 02:02:37;;;;;;;8.63;6.95;;;5.20;99.90;;;;;;5025583;28;20034;-73
2023/01/17 02:05:03;;;;;;;9.82;7.65;;;5.20;99.90;;;;;;5016743;28;20094;-74
2023/01/17 02:07:34;;;;;;;8.55;7.28;;;5.20;99.90;;;;;;5010844;28;20438;-73
2023/01/17 02:10:01;;;;;;;14.05;7.40;;;5.20;99.90;;;;;;5033301;28;20018;-74
2023/01/17 02:12:27;;;;;;;6.18;5.57;;;5.20;99.90;;;;;;5025352;28;20045;-74
2023/01/17 02:14:53;;;;;;;5.13;4.63;;;5.10;99.90;;;;;;5017877;28;20022;-73
2023/01/17 02:17:39;;;;;;;4.95;4.45;;;5.10;99.90;;;;;;5013001;28;20132;-73
2023/01/17 02:20:46;;;;;;;5.47;4.43;;;5.10;99.90;;;;;;5017422;28;20018;-73
2023/01/17 02:23:36;;;;;;;7.88;4.25;;;5.10;99.90;;;;;;5010906;28;20423;-73
2023/01/17 02:26:23;;;;;;;4.65;4.25;;;5.10;99.90;;;;;;5016537;28;20080;-73
2023/01/17 02:29:27;;;;;;;4.38;3.97;;;5.10;99.90;;;;;;5024641;28;20042;-74
2023/01/17 02:32:00;;;;;;;4.85;4.43;;;5.10;99.90;;;;;;5005451;28;20477;-74
2023/01/17 02:34:44;;;;;;;4.30;3.90;;;5.20;99.90;;;;;;5016845;28;20021;-74
2023/01/17 02:37:33;;;;;;;4.90;4.40;;;5.20;99.90;;;;;;5008964;28;20487;-74
2023/01/17 02:40:08;;;;;;;4.22;3.83;;;5.10;99.90;;;;;;5011382;28;20371;-74
2023/01/17 02:42:41;;;;;;;4.35;3.95;;;5.20;99.90;;;;;;5004640;28;20034;-74
2023/01/17 02:45:07;;;;;;;4.40;4.00;;;5.20;99.90;;;;;;5027242;28;20033;-74
2023/01/17 02:47:33;;;;;;;4.10;3.70;;;5.20;99.90;;;;;;5011383;28;20025;-74
2023/01/17 02:50:09;;;;;;;4.20;3.90;;;5.20;99.90;;;;;;5027818;28;20049;-74
2023/01/17 02:53:13;;;;;;;3.65;3.35;;;5.20;99.90;;;;;;5009257;28;20034;-73
2023/01/17 02:56:16;;;;;;;4.05;3.75;;;5.20;99.90;;;;;;5014396;28;20560;-74
2023/01/17 02:59:07;;;;;;;3.50;3.17;;;5.20;99.90;;;;;;5016124;28;20021;-73
2023/01/17 03:01:53;;;;;;;3.70;3.40;;;5.30;99.90;;;;;;5011057;28;20110;-73
2023/01/17 03:04:39;;;;;;;4.03;3.72;;;5.30;99.90;;;;;;5012593;28;20041;-73
2023/01/17 03:07:11;;;;;;;3.53;3.25;;;5.30;99.90;;;;;;5008864;28;20022;-73
2023/01/17 03:09:39;;;;;;;3.65;3.35;;;5.30;99.90;;;;;;5013938;28;20156;-74
2023/01/17 03:12:08;;;;;;;3.97;3.63;;;5.30;99.90;;;;;;5012464;28;20041;-73
2023/01/17 03:14:33;;;;;;;4.10;3.80;;;5.20;99.90;;;;;;5016470;28;20105;-73
2023/01/17 03:16:59;;;;;;;3.70;3.40;;;5.10;99.90;;;;;;5009189;28;20061;-73
2023/01/17 03:19:25;;;;;;;3.67;3.35;;;5.00;99.90;;;;;;5015981;28;20084;-73
2023/01/17 03:21:50;;;;;;;3.80;3.50;;;5.00;99.90;;;;;;5008589;28;20509;-73
2023/01/17 03:24:16;;;;;;;3.63;3.33;;;5.10;99.90;;;;;;5013762;28;20898;-73
2023/01/17 03:26:46;;;;;;;4.30;3.33;;;5.10;99.90;;;;;;5010840;28;20049;-73
2023/01/17 03:29:13;;;;;;;4.20;3.55;;;5.10;99.90;;;;;;5013078;28;20030;-74
2023/01/17 03:31:39;;;;;;;3.20;3.00;;;5.20;99.90;;;;;;5006820;28;20073;-74
2023/01/17 03:34:05;;;;;;;3.72;3.30;;;5.20;99.90;;;;;;5014071;28;20030;-74
2023/01/17 03:36:30;;;;;;;3.70;3.40;;;5.30;99.90;;;;;;5008365;28;20510;-74
2023/01/17 03:38:56;;;;;;;3.78;3.47;;;5.30;99.90;;;;;;5018736;28;20022;-74
2023/01/17 03:41:22;;;;;;;4.50;4.00;;;5.30;99.90;;;;;;5008951;28;20037;-74
2023/01/17 03:43:48;;;;;;;3.78;3.45;;;5.30;99.90;;;;;;5013173;28;20018;-74
2023/01/17 03:46:26;;;;;;;3.90;3.60;;;5.40;99.90;;;;;;5012263;28;20037;-74
2023/01/17 03:48:51;;;;;;;4.55;3.92;;;5.50;99.90;;;;;;5007669;28;20474;-74
2023/01/17 03:51:17;;;;;;;4.10;3.70;;;5.50;99.90;;;;;;5010597;28;20073;-73
2023/01/17 03:53:45;;;;;;;5.72;3.90;;;5.50;99.90;;;;;;5009652;28;20025;-73
2023/01/17 03:56:11;;;;;;;5.30;3.60;;;5.60;99.90;;;;;;5009290;28;20450;-74
2023/01/17 03:58:37;;;;;;;3.60;3.30;;;5.50;99.90;;;;;;5011380;28;20010;-74
2023/01/17 04:01:03;;;;;;;3.83;3.53;;;5.60;99.90;;;;;;5011380;28;20030;-74
2023/01/17 04:03:29;;;;;;;4.13;3.10;;;5.60;99.90;;;;;;5011334;28;20026;-74
2023/01/17 04:05:54;;;;;;;3.88;3.58;;;5.60;99.90;;;;;;5011828;28;20106;-74
2023/01/17 04:08:20;;;;;;;3.60;3.30;;;5.70;99.90;;;;;;5011886;28;20022;-73
2023/01/17 04:10:46;;;;;;;3.70;3.30;;;5.70;99.90;;;;;;5013411;28;20030;-74
2023/01/17 04:13:12;;;;;;;4.05;3.60;;;5.70;99.90;;;;;;5012984;28;20034;-74
2023/01/17 04:15:38;;;;;;;3.97;3.65;;;5.80;99.90;;;;;;5014672;28;20023;-74
2023/01/17 04:18:05;;;;;;;3.80;3.50;;;5.80;99.90;;;;;;5004355;28;20014;-74
2023/01/17 04:20:34;;;;;;;4.60;4.20;;;5.80;99.90;;;;;;5014915;28;20398;-74
2023/01/17 04:23:00;;;;;;;3.13;2.92;;;5.80;99.90;;;;;;5006029;28;20014;-74
2023/01/17 04:25:26;;;;;;;3.50;3.20;;;5.80;99.90;;;;;;5015038;28;20034;-74
2023/01/17 04:27:52;;;;;;;4.93;3.30;;;5.70;99.90;;;;;;5007967;28;20022;-73
2023/01/17 04:30:19;;;;;;;3.67;3.38;;;5.70;99.90;;;;;;5015184;28;20049;-74
2023/01/17 04:32:44;;;;;;;3.70;3.40;;;5.60;99.90;;;;;;5022686;28;20100;-74
2023/01/17 04:35:10;;;;;;;4.78;3.20;;;5.60;99.90;;;;;;5016075;28;20034;-74
2023/01/17 04:37:36;;;;;;;3.30;3.00;;;5.60;99.90;;;;;;5007729;28;20023;-74
2023/01/17 04:40:03;;;;;;;9.23;4.05;;;5.60;99.90;;;;;;5024719;28;20032;-74
2023/01/17 04:42:29;;;;;;;4.55;3.97;;;5.60;99.90;;;;;;5003593;28;20026;-74
2023/01/17 04:44:55;;;;;;;3.60;3.30;;;5.60;99.90;;;;;;5008586;28;20026;-74
2023/01/17 04:47:21;;;;;;;4.53;4.10;;;5.60;99.90;;;;;;5007402;28;20022;-74
2023/01/17 04:49:46;;;;;;;4.35;3.95;;;5.50;99.90;;;;;;5024571;28;20026;-74
2023/01/17 04:52:13;;;;;;;3.83;3.50;;;5.50;99.90;;;;;;5009925;28;20408;-74
2023/01/17 04:54:40;;;;;;;4.55;3.97;;;5.50;99.90;;;;;;5025467;28;20033;-74
2023/01/17 04:57:05;;;;;;;3.80;3.50;;;5.50;99.90;;;;;;5009832;28;20018;-74
2023/01/17 04:59:31;;;;;;;3.60;3.30;;;5.50;99.90;;;;;;5010836;28;20026;-74
2023/01/17 05:01:57;;;;;;;3.70;3.40;;;5.50;99.90;;;;;;5008839;28;20026;-74
2023/01/17 05:04:23;;;;;;;3.70;3.40;;;5.60;99.90;;;;;;5011344;28;20026;-74
2023/01/17 05:06:48;;;;;;;4.80;3.28;;;5.60;99.90;;;;;;5011919;28;20021;-74
2023/01/17 05:09:14;;;;;;;5.13;3.58;;;5.60;99.90;;;;;;5016405;28;20026;-74
2023/01/17 05:11:40;;;;;;;3.45;3.15;;;5.60;99.90;;;;;;5015129;28;20394;-74
2023/01/17 05:14:05;;;;;;;3.72;3.35;;;5.70;99.90;;;;;;5017430;28;20022;-74
2023/01/17 05:16:31;;;;;;;4.88;3.55;;;5.70;99.90;;;;;;5011715;28;20026;-74
2023/01/17 05:18:57;;;;;;;4.40;4.00;;;5.70;99.90;;;;;;5013058;28;20156;-75
2023/01/17 05:21:23;;;;;;;3.40;3.10;;;5.80;99.90;;;;;;5014799;28;20640;-74
2023/01/17 05:23:49;;;;;;;4.47;3.50;;;5.80;99.90;;;;;;5012735;28;20032;-74
2023/01/17 05:26:14;;;;;;;3.60;3.30;;;5.80;99.90;;;;;;5016885;28;20029;-74
2023/01/17 05:28:40;;;;;;;3.60;3.30;;;5.80;99.90;;;;;;5012094;28;20076;-74
2023/01/17 05:31:06;;;;;;;3.50;3.30;;;5.90;99.90;;;;;;5013649;28;20025;-74
2023/01/17 05:33:31;;;;;;;4.13;3.20;;;5.90;99.90;;;;;;5015969;28;20050;-74
2023/01/17 05:35:57;;;;;;;3.50;3.20;;;5.90;99.90;;;;;;5028139;28;20038;-73
2023/01/17 05:38:23;;;;;;;4.38;3.10;;;5.90;99.90;;;;;;5016781;28;20505;-73
2023/01/17 05:40:49;;;;;;;4.47;3.30;;;6.00;99.90;;;;;;5012452;28;20025;-73
2023/01/17 05:43:14;;;;;;;2.92;2.72;;;6.00;99.90;;;;;;5006229;28;20034;-73
2023/01/17 05:45:40;;;;;;;3.80;3.33;;;6.00;99.90;;;;;;5028605;28;20033;-73
2023/01/17 05:48:06;;;;;;;3.30;3.00;;;6.00;99.90;;;;;;5008481;28;20032;-73
2023/01/17 05:50:36;;;;;;;3.63;3.33;;;6.10;99.90;;;;;;5014074;28;20086;-73
2023/01/17 05:53:08;;;;;;;5.07;4.57;;;6.00;99.90;;;;;;5023779;28;20030;-74
2023/01/17 05:55:34;;;;;;;4.18;3.80;;;6.00;99.90;;;;;;5031252;28;20030;-74
2023/01/17 05:58:00;;;;;;;3.50;3.20;;;6.00;99.90;;;;;;5008652;28;20386;-73
2023/01/17 06:00:26;;;;;;;3.45;3.15;;;6.00;99.90;;;;;;5016052;28;20066;-73
2023/01/17 06:02:53;;;;;;;4.47;3.42;;;6.00;99.90;;;;;;5012517;28;20848;-74
2023/01/17 06:05:20;;;;;;;3.58;3.28;;;6.00;99.90;;;;;;5015030;28;20018;-73
2023/01/17 06:07:46;;;;;;;3.88;3.50;;;6.00;99.90;;;;;;5010333;28;20026;-73
2023/01/17 06:10:13;;;;;;;3.45;3.15;;;6.00;99.90;;;;;;5015723;28;20030;-74
2023/01/17 06:12:40;;;;;;;3.78;3.47;;;6.00;99.90;;;;;;5025570;28;20022;-74
2023/01/17 06:15:06;;;;;;;4.68;3.53;;;6.00;99.90;;;;;;5017716;28;20398;-74
2023/01/17 06:17:33;;;;;;;3.45;3.17;;;6.10;99.90;;;;;;5019608;28;20035;-73
2023/01/17 06:19:58;;;;;;;4.47;4.07;;;6.10;99.90;;;;;;5018777;28;20389;-74
2023/01/17 06:22:24;;;;;;;3.70;3.40;;;6.10;99.90;;;;;;5006380;28;20034;-74
2023/01/17 06:24:50;;;;;;;5.13;3.67;;;6.10;99.90;;;;;;5018738;28;20026;-74
2023/01/17 06:27:15;;;;;;;4.65;4.25;;;6.20;99.90;;;;;;5012036;28;20034;-74
2023/01/17 06:29:41;;;;;;;3.78;3.42;;;6.20;99.90;;;;;;5017610;28;20032;-73
2023/01/17 06:32:07;;;;;;;4.15;3.75;;;6.20;99.90;;;;;;5008697;28;20068;-74
2023/01/17 06:34:33;;;;;;;11.15;4.38;;;6.20;99.90;;;;;;5018373;28;20524;-75
2023/01/17 06:36:58;;;;;;;4.40;3.40;;;6.30;99.90;;;;;;5005774;28;20384;-74
2023/01/17 06:39:24;;;;;;;2.80;2.60;;;6.20;99.90;;;;;;5007074;28;20399;-76
2023/01/17 06:41:50;;;;;;;3.17;2.80;;;5.90;99.90;;;;;;5007753;28;20037;-76
2023/01/17 06:44:15;;;;;;;8.82;3.35;;;5.80;99.90;;;;;;5008111;28;20018;-74
2023/01/17 06:46:42;;;;;;;3.10;2.80;;;5.80;99.90;;;;;;5008849;28;20043;-75
2023/01/17 06:49:07;;;;;;;3.55;2.60;;;5.90;99.90;;;;;;5016461;28;20021;-77
2023/01/17 06:51:33;;;;;;;7.05;3.58;;;5.90;99.90;;;;;;5011582;28;20134;-76
2023/01/17 06:53:59;;;;;;;3.20;2.90;;;6.00;99.90;;;;;;5008339;28;20050;-77
2023/01/17 06:56:24;;;;;;;2.80;2.50;;;6.00;99.90;;;;;;5012023;28;20022;-75
2023/01/17 06:58:51;;;;;;;2.72;2.53;;;6.00;99.90;;;;;;5015869;28;20101;-75
2023/01/17 07:01:17;;;;;;;3.28;3.00;;;6.00;99.90;;;;;;5013576;28;20402;-73
2023/01/17 07:03:43;;;;;;;3.00;2.80;;;6.10;99.90;;;;;;5015411;28;20034;-73
2023/01/17 07:06:09;;;;;;;3.60;2.97;;;6.10;99.90;;;;;;5014020;28;20020;-74
2023/01/17 07:08:35;;;;;;;3.53;3.10;;;6.10;99.90;;;;;;5007063;28;20030;-73
2023/01/17 07:11:03;;;;;;;4.50;2.95;;;6.20;99.90;;;;;;5014098;28;20088;-73
2023/01/17 07:13:32;;;;;;;3.00;2.80;;;6.30;99.90;;;;;;5013292;28;20030;-74
2023/01/17 07:16:00;;;;;;;2.97;2.78;;;6.30;99.90;;;;;;5012704;28;20464;-73
2023/01/17 07:18:25;;;;;;;2.95;2.75;;;6.30;99.90;;;;;;5013311;28;20083;-76
2023/01/17 07:20:52;;;;;;;2.80;2.60;;;6.30;99.90;;;;;;5013088;28;20026;-74
2023/01/17 07:23:19;;;;;;;3.13;2.92;;;6.50;99.90;;;;;;5015543;28;20025;-74
2023/01/17 07:25:52;;;;;;;3.05;2.85;;;6.60;99.90;;;;;;5014651;28;20053;-73
2023/01/17 07:28:18;;;;;;;3.83;2.88;;;6.50;99.90;;;;;;5027092;28;20033;-74
2023/01/17 07:30:44;;;;;;;3.10;2.80;;;6.50;99.90;;;;;;5011920;28;20068;-74
2023/01/17 07:33:10;;;;;;;3.25;3.05;;;6.60;99.90;;;;;;5012096;28;20021;-73
2023/01/17 07:35:36;;;;;;;3.00;2.80;;;6.50;99.90;;;;;;5013669;28;20034;-74
2023/01/17 07:38:03;;;;;;;3.08;2.88;;;6.60;99.90;;;;;;5014782;28;20494;-74
2023/01/17 07:40:28;;;;;;;3.33;3.03;;;6.60;99.90;;;;;;5015555;28;20041;-73
2023/01/17 07:43:00;;;;;;;3.40;3.10;;;6.60;99.90;;;;;;5011972;28;20030;-73
2023/01/17 07:45:26;;;;;;;4.10;3.30;;;6.70;99.90;;;;;;5013929;28;20410;-73
2023/01/17 07:47:55;;;;;;;3.22;2.92;;;6.70;99.90;;;;;;5010611;28;20037;-73
2023/01/17 07:50:21;;;;;;;13.50;7.43;;;6.70;99.90;;;;;;5005578;28;20050;-72
2023/01/17 07:52:50;;;;;;;4.53;3.05;;;6.70;99.90;;;;;;5013611;28;20116;-73
2023/01/17 07:55:15;;;;;;;4.07;3.67;;;6.70;99.90;;;;;;5012731;28;20026;-73
2023/01/17 07:57:41;;;;;;;6.00;3.50;;;6.70;99.90;;;;;;5012867;28;20555;-72
2023/01/17 08:00:08;;;;;;;3.72;3.15;;;6.70;99.90;;;;;;5013537;28;20057;-72
2023/01/17 08:02:33;;;;;;;3.72;3.30;;;6.70;99.90;;;;;;5012672;28;20033;-72
2023/01/17 08:04:59;;;;;;;8.52;3.00;;;6.70;99.90;;;;;;5014388;28;20486;-72
2023/01/17 08:07:25;;;;;;;3.38;3.17;;;6.80;99.90;;;;;;5010978;28;20157;-74
2023/01/17 08:09:50;;;;;;;3.72;3.10;;;6.80;99.90;;;;;;5015169;28;20037;-73
2023/01/17 08:12:16;;;;;;;5.20;3.25;;;6.80;99.90;;;;;;5012672;28;20030;-73
2023/01/17 08:14:42;;;;;;;3.78;3.20;;;6.80;99.90;;;;;;5015725;28;20061;-72
2023/01/17 08:17:16;;;;;;;4.00;3.60;;;6.80;99.90;;;;;;5013362;28;20022;-72
2023/01/17 08:19:42;;;;;;;3.45;3.15;;;6.80;99.90;;;;;;5013268;28;20026;-73
2023/01/17 08:22:08;;;;;;;4.28;3.45;;;6.80;99.90;;;;;;5009119;28;21335;-73
2023/01/17 08:24:34;;;;;;;3.20;2.90;;;6.80;99.90;;;;;;5014894;28;20034;-73
2023/01/17 08:26:59;;;;;;;5.40;3.15;;;6.80;99.90;;;;;;5012418;28;20018;-72
2023/01/17 08:29:25;;;;;;;3.08;2.88;;;6.90;99.90;;;;;;5012910;28;20177;-72
2023/01/17 08:31:51;;;;;;;4.25;3.00;;;6.90;99.90;;;;;;5009828;28;20018;-72
2023/01/17 08:34:16;;;;;;;7.97;4.95;;;6.90;99.90;;;;;;5013217;28;20022;-71
2023/01/17 08:36:43;;;;;;;5.65;3.38;;;7.00;99.90;;;;;;5012006;28;20386;-71
2023/01/17 08:39:11;;;;;;;6.55;4.30;;;7.00;99.90;;;;;;5013736;28;20113;-71
2023/01/17 08:41:37;;;;;;;6.72;4.20;;;6.90;99.90;;;;;;5015194;28;20493;-71
2023/01/17 08:44:03;;;;;;;4.75;3.63;;;6.90;99.90;;;;;;5019507;28;20026;-71
2023/01/17 08:46:29;;;;;;;7.20;4.20;;;6.80;99.90;;;;;;5015719;28;20561;-71
2023/01/17 08:48:57;;;;;;;10.27;4.07;;;6.80;99.90;;;;;;5017044;28;20512;-72
2023/01/17 08:51:25;;;;;;;3.90;2.75;;;6.80;99.90;;;;;;5016557;28;20037;-73
2023/01/17 08:53:51;;;;;;;4.55;3.92;;;6.70;99.90;;;;;;5018264;28;20018;-72
2023/01/17 08:56:17;;;;;;;7.63;3.13;;;6.60;99.90;;;;;;5016305;28;20076;-73
2023/01/17 08:58:43;;;;;;;8.18;3.67;;;6.50;99.90;;;;;;5018310;28;20477;-72
2023/01/17 09:01:09;;;;;;;5.72;3.03;;;6.50;99.90;;;;;;5016337;28;20065;-71
2023/01/17 09:03:35;;;;;;;8.13;3.33;;;6.50;99.90;;;;;;5018904;28;20105;-72
2023/01/17 09:06:07;;;;;;;7.18;3.47;;;6.40;99.90;;;;;;5016516;28;20057;-74
2023/01/17 09:08:33;;;;;;;5.15;2.78;;;6.40;99.90;;;;;;5010907;28;20085;-73
2023/01/17 09:11:10;;;;;;;6.22;3.17;;;6.40;99.90;;;;;;5014416;28;20068;-72
2023/01/17 09:13:36;;;;;;;5.80;3.00;;;6.40;99.90;;;;;;5018160;28;20474;-72
2023/01/17 09:16:03;;;;;;;5.22;4.47;;;6.30;99.90;;;;;;5014869;28;20030;-73
2023/01/17 09:18:30;;;;;;;4.03;3.63;;;6.30;99.90;;;;;;5017684;28;20054;-75
2023/01/17 09:20:58;;;;;;;5.32;2.90;;;6.20;99.90;;;;;;5030058;28;20029;-75
2023/01/17 09:23:29;;;;;;;11.55;7.90;;;6.20;99.90;;;;;;5018710;28;20093;-72
2023/01/17 09:25:59;;;;;;;3.72;3.08;;;6.10;99.90;;;;;;5014098;28;20076;-72
2023/01/17 09:28:26;;;;;;;4.55;3.22;;;6.10;99.90;;;;;;5016212;28;20058;-73
2023/01/17 09:30:52;;;;;;;4.07;3.10;;;6.10;99.90;;;;;;5012077;28;20557;-72
2023/01/17 09:33:18;;;;;;;2.83;2.63;;;6.10;99.90;;;;;;5017168;28;20044;-72
2023/01/17 09:35:45;;;;;;;3.17;2.88;;;6.10;99.90;;;;;;5016976;28;20020;-72
2023/01/17 09:38:11;;;;;;;3.40;2.88;;;6.20;99.90;;;;;;5016532;28;20030;-73
2023/01/17 09:40:47;;;;;;;3.42;3.13;;;6.20;99.90;;;;;;5013450;28;20026;-72
2023/01/17 09:43:43;;;;;;;3.45;3.15;;;6.20;99.90;;;;;;5015021;28;20033;-73
2023/01/17 09:46:22;;;;;;;3.38;3.08;;;6.20;99.90;;;;;;5013544;28;20034;-72
2023/01/17 09:49:01;;;;;;;3.33;2.83;;;6.20;99.90;;;;;;5014656;28;20036;-73
2023/01/17 09:51:27;;;;;;;3.22;3.03;;;6.20;99.90;;;;;;5012345;28;20054;-73
2023/01/17 09:53:54;;;;;;;2.90;2.60;;;6.20;99.90;;;;;;5016098;28;20041;-73
2023/01/17 09:56:38;;;;;;;2.90;2.70;;;6.10;99.90;;;;;;5014431;28;20513;-74
2023/01/17 09:59:13;;;;;;;3.67;3.05;;;6.10;99.90;;;;;;5014087;28;20022;-72
2023/01/17 10:02:19;;;;;;;3.33;3.00;;;6.10;99.90;;;;;;5015207;28;20069;-72
2023/01/17 10:05:22;;;;;;;3.17;2.88;;;6.20;99.90;;;;;;5017796;28;20040;-72
2023/01/17 10:07:51;;;;;;;3.00;2.80;;;6.10;99.90;;;;;;5013866;28;20486;-74
2023/01/17 10:10:41;;;;;;;3.35;3.05;;;6.20;99.90;;;;;;5016390;28;20018;-73
2023/01/17 10:13:33;;;;;;;3.78;3.45;;;6.20;99.90;;;;;;5016314;28;20386;-74
2023/01/17 10:16:11;;;;;;;3.20;3.00;;;6.20;99.90;;;;;;5010198;28;20034;-74
2023/01/17 10:18:59;;;;;;;3.10;2.90;;;6.20;99.90;;;;;;5015851;28;20109;-73
2023/01/17 10:21:43;;;;;;;3.67;3.30;;;6.10;99.90;;;;;;5014223;28;20018;-74
2023/01/17 10:24:43;;;;;;;3.58;3.28;;;6.00;99.90;;;;;;5017459;28;20037;-73
2023/01/17 10:27:23;;;;;;;4.78;3.30;;;5.90;99.90;;;;;;5014758;28;20056;-73
2023/01/17 10:29:49;;;;;;;;;;;5.80;99.90;;;;;;5013043;28;20125;-74
2023/01/17 10:32:15;;;;;;;3.33;3.13;;;5.80;99.90;;;;;;5013266;28;19948;-74
2023/01/17 10:34:49;;;;;;;3.30;3.05;;;5.80;99.90;;;;;;5017868;28;20018;-74
2023/01/17 10:37:41;;;;;;;7.57;3.20;;;5.90;99.90;;;;;;5014908;28;20117;-76
2023/01/17 10:40:20;;;;;;;3.35;3.10;;;5.90;99.90;;;;;;5016758;28;20102;-76
2023/01/17 10:42:52;;;;;;;4.15;3.45;;;5.90;99.90;;;;;;5015437;28;20030;-74
2023/01/17 10:45:30;;;;;;;3.28;2.90;;;6.00;99.90;;;;;;5016306;28;20026;-72
2023/01/17 10:48:10;;;;;;;3.10;2.90;;;6.10;99.90;;;;;;5015312;28;20545;-70
2023/01/17 10:50:51;;;;;;;4.22;2.92;;;6.30;99.90;;;;;;5012846;28;20069;-72
2023/01/17 10:53:48;;;;;;;5.22;4.38;;;6.40;99.90;;;;;;5016814;28;20037;-71
2023/01/17 10:56:16;;;;;;;8.23;3.80;;;6.50;99.90;;;;;;5012300;28;20026;-70
2023/01/17 10:58:42;;;;;;;6.03;3.17;;;6.50;99.90;;;;;;5015620;28;20022;-71
2023/01/17 11:01:19;;;;;;;4.20;3.50;;;6.60;99.90;;;;;;5013440;28;20479;-72
2023/01/17 11:03:50;;;;;;;3.60;3.30;;;6.60;99.90;;;;;;5013970;28;20038;-71
2023/01/17 11:06:22;;;;;;;3.10;2.80;;;6.70;99.90;;;;;;5012826;28;20105;-72
2023/01/17 11:08:59;;;;;;;3.25;2.95;;;6.70;99.90;;;;;;5015044;28;20040;-72
2023/01/17 11:11:30;;;;;;;3.40;2.83;;;6.70;99.90;;;;;;5012612;28;20030;-71
2023/01/17 11:14:04;;;;;;;3.00;2.80;;;6.60;99.90;;;;;;5016976;28;20540;-73
2023/01/17 11:16:31;;;;;;;6.38;2.70;;;6.50;99.90;;;;;;5012639;28;20025;-73
2023/01/17 11:19:15;;;;;;;3.35;2.90;;;6.50;99.90;;;;;;5014990;28;20109;-73
2023/01/17 11:21:51;;;;;;;3.20;2.90;;;6.60;99.90;;;;;;5011567;28;20023;-73
2023/01/17 11:24:32;;;;;;;3.95;2.60;;;6.60;99.90;;;;;;5015634;28;20458;-72
2023/01/17 11:26:58;;;;;;;4.60;2.90;;;6.50;99.90;;;;;;5012235;28;20022;-74
2023/01/17 11:29:31;;;;;;;3.70;3.40;;;6.40;99.90;;;;;;5013645;28;20114;-73
2023/01/17 11:32:21;;;;;;;3.65;3.05;;;6.30;99.90;;;;;;5009987;28;20394;-73
2023/01/17 11:35:15;;;;;;;3.95;3.30;;;6.10;99.90;;;;;;5015042;28;20109;-73
2023/01/17 11:37:56;;;;;;;4.78;3.17;;;5.90;99.90;;;;;;5013509;28;20096;-72
2023/01/17 11:40:32;;;;;;;3.40;3.20;;;5.80;99.90;;;;;;5013110;28;20014;-72
2023/01/17 11:43:04;;;;;;;3.88;3.38;;;5.70;99.90;;;;;;5012298;28;20037;-73
2023/01/17 11:45:33;;;;;;;8.27;4.97;;;5.60;99.90;;;;;;5012707;28;20093;-72
2023/01/17 11:48:08;;;;;;;7.78;5.45;;;5.50;99.90;;;;;;5012780;28;20022;-73
2023/01/17 11:50:58;;;;;;;7.05;4.45;;;5.50;99.90;;;;;;5012255;28;20089;-73
2023/01/17 11:53:25;;;;;;;6.03;3.92;;;5.50;99.90;;;;;;5009718;28;20034;-72
2023/01/17 11:55:52;;;;;;;6.65;4.18;;;5.50;99.90;;;;;;5016502;28;20041;-72
2023/01/17 11:58:19;;;;;;;6.07;5.00;;;5.50;99.90;;;;;;5014233;28;20425;-72
2023/01/17 12:00:50;;;;;;;10.30;4.20;;;5.50;99.90;;;;;;5012304;28;20046;-71
2023/01/17 12:03:22;;;;;;;;;;;5.60;99.90;;;;;;5015516;28;20219;-72
2023/01/17 12:05:52;;;;;;;3.63;3.33;;;5.60;99.90;;;;;;5012617;28;19909;-71
2023/01/17 12:08:50;;;;;;;3.58;3.22;;;5.70;99.90;;;;;;5015468;28;20402;-72
2023/01/17 12:11:34;;;;;;;8.50;3.80;;;5.70;99.90;;;;;;5012005;28;20034;-72
2023/01/17 12:14:30;;;;;;;4.70;4.22;;;5.70;99.90;;;;;;5011898;28;20080;-73
2023/01/17 12:17:19;;;;;;;4.07;3.70;;;5.90;99.90;;;;;;5009177;28;20034;-72
2023/01/17 12:19:59;;;;;;;4.45;4.03;;;5.90;99.90;;;;;;5013705;28;20140;-72
2023/01/17 12:22:40;;;;;;;7.88;3.78;;;6.00;99.90;;;;;;5012115;28;20022;-72
2023/01/17 12:25:13;;;;;;;;;;;6.10;99.90;;;;;;5015005;28;20042;-72
2023/01/17 12:28:07;;;;;;;3.70;3.40;;;6.30;99.90;;;;;;5013619;28;19972;-72
2023/01/17 12:30:45;;;;;;;5.07;3.80;;;6.30;99.90;;;;;;5011251;28;20037;-72
2023/01/17 12:33:20;;;;;;;3.25;2.95;;;6.30;99.90;;;;;;5013156;28;20075;-73
2023/01/17 12:35:49;;;;;;;3.35;3.05;;;6.30;99.90;;;;;;5014297;28;20034;-73
2023/01/17 12:38:44;;;;;;;6.60;3.90;;;6.40;99.90;;;;;;5013450;28;20022;-72
2023/01/17 12:41:51;;;;;;;3.65;3.10;;;6.40;99.90;;;;;;5011657;28;20069;-73
2023/01/17 12:44:22;;;;;;;4.80;2.90;;;6.60;99.90;;;;;;5013706;28;20453;-74
2023/01/17 12:46:59;;;;;;;5.32;3.45;;;6.60;99.90;;;;;;5010565;28;20073;-73
2023/01/17 12:49:52;;;;;;;3.40;3.10;;;6.70;99.90;;;;;;5016976;28;20026;-73
2023/01/17 12:52:24;;;;;;;3.95;3.28;;;6.70;99.90;;;;;;5011019;28;20060;-72
2023/01/17 12:54:56;;;;;;;3.58;3.20;;;6.70;99.90;;;;;;5015178;28;20026;-72
2023/01/17 12:57:32;;;;;;;4.50;3.00;;;6.80;99.90;;;;;;5010855;28;20096;-72
2023/01/17 13:00:18;;;;;;;4.22;2.83;;;6.70;99.90;;;;;;5024965;28;20037;-73
2023/01/17 13:03:41;;;;;;;3.63;3.33;;;6.60;99.90;;;;;;5011856;28;20026;-73
2023/01/17 13:06:11;;;;;;;4.68;2.88;;;6.40;99.90;;;;;;5012355;28;20025;-74
2023/01/17 13:08:45;;;;;;;3.22;2.92;;;6.30;99.90;;;;;;5015299;28;20025;-73
2023/01/17 13:11:19;;;;;;;4.30;3.25;;;6.20;99.90;;;;;;5011071;28;20038;-73
2023/01/17 13:13:46;;;;;;;3.65;2.83;;;6.20;99.90;;;;;;5012752;28;20052;-74
2023/01/17 13:16:38;;;;;;;3.28;3.08;;;6.30;99.90;;;;;;5011463;28;20037;-73
2023/01/17 13:19:53;;;;;;;3.40;3.10;;;6.30;99.90;;;;;;5013789;28;20022;-73
2023/01/17 13:22:22;;;;;;;3.17;2.80;;;6.30;99.90;;;;;;5010601;28;20121;-73
2023/01/17 13:25:32;;;;;;;6.18;3.20;;;6.20;99.90;;;;;;5014383;28;20030;-72
2023/01/17 13:28:29;;;;;;;3.22;3.03;;;6.10;99.90;;;;;;4997145;28;20499;-72
2023/01/17 13:31:16;;;;;;;4.65;3.30;;;6.10;99.90;;;;;;4998230;28;20026;-73
2023/01/17 13:33:41;;;;;;;4.38;3.20;;;6.10;99.90;;;;;;5015676;28;20461;-73
2023/01/17 13:36:56;;;;;;;5.68;4.28;;;6.00;99.90;;;;;;5015576;28;20080;-73
2023/01/17 13:39:46;;;;;;;5.30;4.35;;;6.10;99.90;;;;;;5035534;28;20037;-73
2023/01/17 13:42:21;;;;;;;3.80;3.50;;;6.20;99.90;;;;;;5013453;28;20030;-72
2023/01/17 13:44:47;;;;;;;8.27;3.55;;;6.30;99.90;;;;;;5017198;28;20025;-71
2023/01/17 13:47:15;;;;;;;6.82;4.40;;;6.40;99.90;;;;;;5016581;28;20498;-72
2023/01/17 13:49:50;;;;;;;6.55;4.47;;;6.40;99.90;;;;;;5015896;28;20129;-72
2023/01/17 13:52:18;;;;;;;9.30;4.70;;;6.40;99.90;;;;;;5014028;28;20030;-71
2023/01/17 13:54:51;;;;;;;5.82;3.08;;;6.40;99.90;;;;;;5017048;28;20030;-72
2023/01/17 13:57:31;;;;;;;7.30;4.35;;;6.50;99.90;;;;;;5014657;28;20056;-72
2023/01/17 14:00:14;;;;;;;6.97;4.13;;;6.50;99.90;;;;;;5017534;28;20076;-73
2023/01/17 14:02:41;;;;;;;4.22;3.83;;;6.60;99.90;;;;;;5014928;28;20030;-73
2023/01/17 14:05:22;;;;;;;3.38;3.08;;;6.70;99.90;;;;;;5018128;28;20026;-73
2023/01/17 14:07:59;;;;;;;;;;;6.90;99.90;;;;;;5014284;28;20410;-72
2023/01/17 14:10:28;;;;;;;10.02;7.65;;;7.00;99.90;;;;;;5015772;28;19916;-72
2023/01/17 14:12:54;;;;;;;5.50;3.30;;;7.00;99.90;;;;;;5015543;28;20025;-73
2023/01/17 14:15:24;;;;;;;3.47;3.17;;;6.90;99.90;;;;;;5016205;28;20018;-72
2023/01/17 14:18:03;;;;;;;6.78;4.57;;;6.80;99.90;;;;;;5027094;28;20034;-72
2023/01/17 14:20:49;;;;;;;3.42;3.10;;;6.70;99.90;;;;;;5014060;28;20022;-73
2023/01/17 14:23:43;;;;;;;8.18;4.72;;;6.60;99.90;;;;;;5015104;28;20486;-73
2023/01/17 14:26:41;;;;;;;6.88;3.78;;;6.60;99.90;;;;;;5014968;28;20480;-72
2023/01/17 14:29:41;;;;;;;3.78;3.35;;;6.60;99.90;;;;;;5016685;28;20042;-72
2023/01/17 14:32:20;;;;;;;4.83;4.43;;;6.60;99.90;;;;;;5012941;28;20509;-72
2023/01/17 14:34:48;;;;;;;4.13;3.40;;;6.50;99.90;;;;;;5016657;28;20022;-74
2023/01/17 14:37:45;;;;;;;4.80;3.67;;;6.50;99.90;;;;;;5010118;28;20097;-73
2023/01/17 14:40:25;;;;;;;3.42;3.13;;;6.50;99.90;;;;;;5013559;28;20026;-73
2023/01/17 14:43:14;;;;;;;10.05;7.07;;;6.50;99.90;;;;;;5011680;28;20097;-73
2023/01/17 14:45:42;;;;;;;5.50;3.63;;;6.50;99.90;;;;;;5015853;28;20113;-73
2023/01/17 14:48:19;;;;;;;5.70;3.20;;;6.40;99.90;;;;;;5005579;28;20026;-73